createdAt,value
2018-05-25T00:02:19.538Z,101871.00
2018-05-25T00:04:45.437Z,101873.76
2018-05-25T00:07:11.336Z,101883.04
2018-05-25T00:09:37.224Z,101882.23
2018-05-25T00:12:02.979Z,101881.91
2018-05-25T00:14:28.735Z,101883.24
2018-05-25T00:16:54.534Z,101883.70
2018-05-25T00:19:20.279Z,101887.84
2018-05-25T00:21:46.112Z,101884.67
2018-05-25T00:24:11.903Z,101883.95
2018-05-25T00:26:44.649Z,101884.60
2018-05-25T00:29:10.438Z,101881.34
2018-05-25T00:31:36.208Z,101877.87
2018-05-25T00:34:01.960Z,101881.56
2018-05-25T00:36:28.004Z,101879.98
2018-05-25T00:38:53.785Z,101877.87
2018-05-25T00:41:19.603Z,101878.75
2018-05-25T00:43:45.451Z,101873.19
2018-05-25T00:46:11.227Z,101866.92
2018-05-25T00:48:37.011Z,101873.70
2018-05-25T00:51:02.764Z,101873.58
2018-05-25T00:53:28.511Z,101874.64
2018-05-25T00:55:54.279Z,101867.41
2018-05-25T00:58:20.055Z,101869.79
2018-05-25T01:00:45.831Z,101867.42
2018-05-25T01:03:11.645Z,101861.94
2018-05-25T01:05:37.443Z,101867.81
2018-05-25T01:08:03.204Z,101868.00
2018-05-25T01:10:29.038Z,101869.77
2018-05-25T01:12:54.823Z,101863.11
2018-05-25T01:15:20.570Z,101865.56
2018-05-25T01:17:46.332Z,101869.88
2018-05-25T01:20:12.076Z,101865.42
2018-05-25T01:22:37.888Z,101873.09
2018-05-25T01:25:03.643Z,101865.44
2018-05-25T01:27:29.457Z,101871.66
2018-05-25T01:29:55.198Z,101869.59
2018-05-25T01:32:20.984Z,101868.34
2018-05-25T01:34:46.737Z,101876.92
2018-05-25T01:37:12.749Z,101867.79
2018-05-25T01:39:38.536Z,101873.17
2018-05-25T01:42:04.287Z,101865.36
2018-05-25T01:44:30.071Z,101868.29
2018-05-25T01:46:56.248Z,101862.31
2018-05-25T01:49:22.119Z,101860.64
2018-05-25T01:51:47.895Z,101860.25
2018-05-25T01:54:13.635Z,101861.70
2018-05-25T01:56:39.423Z,101857.05
2018-05-25T01:59:05.182Z,101861.59
2018-05-25T02:01:30.960Z,101855.16
2018-05-25T02:03:56.758Z,101860.19
2018-05-25T02:06:22.522Z,101863.47
2018-05-25T02:08:48.299Z,101864.95
2018-05-25T02:11:14.270Z,101864.88
2018-05-25T02:13:40.002Z,101863.28
2018-05-25T02:16:05.774Z,101866.41
2018-05-25T02:18:31.556Z,101860.86
2018-05-25T02:20:57.294Z,101855.14
2018-05-25T02:23:23.084Z,101854.45
2018-05-25T02:25:48.844Z,101855.38
2018-05-25T02:28:14.616Z,101848.55
2018-05-25T02:30:40.359Z,101850.51
2018-05-25T02:33:06.386Z,101853.70
2018-05-25T02:35:32.155Z,101849.88
2018-05-25T02:37:58.084Z,101850.86
2018-05-25T02:40:23.871Z,101854.83
2018-05-25T02:42:49.640Z,101847.73
2018-05-25T02:45:15.501Z,101851.76
2018-05-25T02:47:41.323Z,101852.39
2018-05-25T02:50:07.071Z,101852.45
2018-05-25T02:52:32.894Z,101852.13
2018-05-25T02:54:58.718Z,101850.23
2018-05-25T02:57:24.503Z,101849.12
2018-05-25T02:59:50.258Z,101842.05
2018-05-25T03:02:16.051Z,101842.64
2018-05-25T03:04:41.793Z,101839.45
2018-05-25T03:07:07.547Z,101833.48
2018-05-25T03:09:33.331Z,101838.83
2018-05-25T03:11:59.083Z,101842.53
2018-05-25T03:14:24.835Z,101838.89
2018-05-25T03:16:50.594Z,101837.66
2018-05-25T03:19:16.372Z,101838.47
2018-05-25T03:21:42.116Z,101844.69
2018-05-25T03:24:07.893Z,101847.34
2018-05-25T03:26:33.635Z,101844.75
2018-05-25T03:28:59.623Z,101851.09
2018-05-25T03:31:25.393Z,101855.45
2018-05-25T03:33:51.159Z,101850.16
2018-05-25T03:36:16.904Z,101849.20
2018-05-25T03:38:42.691Z,101849.77
2018-05-25T03:41:08.443Z,101859.03
2018-05-25T03:43:34.207Z,101848.36
2018-05-25T03:45:59.961Z,101848.03
2018-05-25T03:48:25.839Z,101841.98
2018-05-25T03:50:51.623Z,101846.41
2018-05-25T03:53:17.388Z,101846.22
2018-05-25T03:55:43.163Z,101840.64
2018-05-25T03:58:08.952Z,101846.01
2018-05-25T04:00:46.980Z,101844.05
2018-05-25T04:03:12.824Z,101846.64
2018-05-25T04:05:38.591Z,101844.89
2018-05-25T04:08:04.364Z,101837.37
2018-05-25T04:10:30.138Z,101843.61
2018-05-25T04:12:55.989Z,101838.26
2018-05-25T04:15:21.753Z,101845.55
2018-05-25T04:17:47.522Z,101840.14
2018-05-25T04:20:13.287Z,101835.53
2018-05-25T04:22:39.022Z,101846.09
2018-05-25T04:25:04.802Z,101844.70
2018-05-25T04:27:30.563Z,101839.81
2018-05-25T04:29:56.347Z,101838.27
2018-05-25T04:32:22.136Z,101844.86
2018-05-25T04:34:47.895Z,101845.08
2018-05-25T04:37:13.644Z,101846.62
2018-05-25T04:39:39.431Z,101854.05
2018-05-25T04:42:05.180Z,101842.21
2018-05-25T04:44:31.030Z,101842.47
2018-05-25T04:46:56.957Z,101851.10
2018-05-25T04:49:22.763Z,101852.61
2018-05-25T04:51:48.503Z,101849.89
2018-05-25T04:54:14.460Z,101850.56
2018-05-25T04:56:40.323Z,101851.05
2018-05-25T04:59:06.116Z,101853.10
2018-05-25T05:01:32.002Z,101848.27
2018-05-25T05:03:57.784Z,101852.06
2018-05-25T05:06:23.712Z,101846.12
2018-05-25T05:08:49.452Z,101849.36
2018-05-25T05:11:15.218Z,101856.99
2018-05-25T05:13:40.964Z,101851.18
2018-05-25T05:16:06.780Z,101856.52
2018-05-25T05:18:32.527Z,101856.91
2018-05-25T05:20:58.411Z,101848.28
2018-05-25T05:23:24.166Z,101854.73
2018-05-25T05:25:49.943Z,101851.22
2018-05-25T05:28:15.699Z,101852.34
2018-05-25T05:30:41.468Z,101851.59
2018-05-25T05:33:07.219Z,101848.19
2018-05-25T05:35:33.063Z,101845.59
2018-05-25T05:37:58.815Z,101843.28
2018-05-25T05:40:24.595Z,101845.11
2018-05-25T05:42:50.340Z,101849.39
2018-05-25T05:45:16.192Z,101853.27
2018-05-25T05:47:41.943Z,101850.94
2018-05-25T05:50:07.715Z,101845.84
2018-05-25T05:52:33.466Z,101852.61
2018-05-25T05:54:59.252Z,101853.81
2018-05-25T05:57:24.992Z,101847.49
2018-05-25T05:59:50.749Z,101857.59
2018-05-25T06:02:16.539Z,101860.12
2018-05-25T06:04:42.288Z,101854.57
2018-05-25T06:07:08.053Z,101853.48
2018-05-25T06:09:33.827Z,101860.95
2018-05-25T06:11:59.597Z,101861.14
2018-05-25T06:14:25.399Z,101864.88
2018-05-25T06:16:51.245Z,101857.77
2018-05-25T06:19:16.972Z,101861.47
2018-05-25T06:21:42.727Z,101862.84
2018-05-25T06:24:08.480Z,101864.78
2018-05-25T06:26:34.302Z,101869.72
2018-05-25T06:29:00.043Z,101863.67
2018-05-25T06:31:25.837Z,101868.68
2018-05-25T06:33:51.581Z,101867.38
2018-05-25T06:36:17.338Z,101872.07
2018-05-25T06:38:43.151Z,101877.25
2018-05-25T06:41:08.911Z,101873.85
2018-05-25T06:43:34.664Z,101877.13
2018-05-25T06:46:00.607Z,101878.91
2018-05-25T06:48:26.370Z,101875.77
2018-05-25T06:50:52.294Z,101874.71
2018-05-25T06:53:18.036Z,101876.61
2018-05-25T06:55:43.823Z,101876.80
2018-05-25T06:58:09.588Z,101872.62
2018-05-25T07:00:35.327Z,101874.70
2018-05-25T07:03:01.104Z,101878.78
2018-05-25T07:05:26.915Z,101879.20
2018-05-25T07:07:52.812Z,101878.71
2018-05-25T07:10:18.566Z,101875.85
2018-05-25T07:12:44.307Z,101880.71
2018-05-25T07:15:10.065Z,101882.02
2018-05-25T07:17:36.128Z,101887.81
2018-05-25T07:20:01.913Z,101881.48
2018-05-25T07:22:27.681Z,101885.09
2018-05-25T07:24:53.515Z,101878.17
2018-05-25T07:27:19.289Z,101881.83
2018-05-25T07:29:45.057Z,101885.46
2018-05-25T07:32:10.826Z,101882.20
2018-05-25T07:34:36.570Z,101882.52
2018-05-25T07:37:02.341Z,101881.91
2018-05-25T07:39:28.111Z,101874.41
2018-05-25T07:41:53.974Z,101873.83
2018-05-25T07:44:19.731Z,101883.70
2018-05-25T07:46:45.523Z,101879.48
2018-05-25T07:49:11.263Z,101878.79
2018-05-25T07:51:37.143Z,101876.96
2018-05-25T07:54:02.912Z,101879.06
2018-05-25T07:56:28.683Z,101876.73
2018-05-25T07:58:54.584Z,101869.41
2018-05-25T08:01:20.367Z,101863.33
2018-05-25T08:03:46.137Z,101866.33
2018-05-25T08:06:11.916Z,101863.88
2018-05-25T08:08:37.683Z,101867.49
2018-05-25T08:11:03.434Z,101857.55
2018-05-25T08:13:29.207Z,101855.80
2018-05-25T08:15:55.027Z,101860.19
2018-05-25T08:18:20.791Z,101862.88
2018-05-25T08:20:46.535Z,101851.20
2018-05-25T08:23:12.311Z,101857.66
2018-05-25T08:25:38.051Z,101852.54
2018-05-25T08:28:03.818Z,101850.84
2018-05-25T08:30:29.579Z,101853.45
2018-05-25T08:32:55.424Z,101848.98
2018-05-25T08:35:21.175Z,101852.61
2018-05-25T08:37:46.955Z,101853.95
2018-05-25T08:40:12.700Z,101853.30
2018-05-25T08:42:38.539Z,101849.59
2018-05-25T08:45:04.299Z,101854.39
2018-05-25T08:47:30.097Z,101859.68
2018-05-25T08:49:55.835Z,101859.20
2018-05-25T08:52:21.594Z,101852.52
2018-05-25T08:54:47.336Z,101847.50
2018-05-25T08:57:13.128Z,101848.39
2018-05-25T08:59:38.863Z,101842.05
2018-05-25T09:02:04.673Z,101845.73
2018-05-25T09:04:30.460Z,101850.54
2018-05-25T09:06:56.215Z,101848.91
2018-05-25T09:09:21.992Z,101852.05
2018-05-25T09:11:47.740Z,101846.86
2018-05-25T09:14:13.514Z,101849.25
2018-05-25T09:16:39.299Z,101842.92
2018-05-25T09:19:05.078Z,101842.41
2018-05-25T09:21:30.904Z,101836.16
2018-05-25T09:23:56.711Z,101839.95
2018-05-25T09:26:22.512Z,101838.77
2018-05-25T09:28:48.276Z,101841.20
2018-05-25T09:31:14.033Z,101845.41
2018-05-25T09:33:39.802Z,101848.53
2018-05-25T09:36:05.601Z,101848.14
2018-05-25T09:38:31.352Z,101845.61
2018-05-25T09:40:57.120Z,101849.59
2018-05-25T09:43:23.044Z,101848.00
2018-05-25T09:45:48.723Z,101846.20
2018-05-25T09:48:14.526Z,101846.52
2018-05-25T09:50:40.255Z,101858.09
2018-05-25T09:53:06.020Z,101847.25
2018-05-25T09:55:31.773Z,101845.83
2018-05-25T09:57:57.563Z,101842.67
2018-05-25T10:00:25.179Z,101846.62
2018-05-25T10:02:50.934Z,101854.88
2018-05-25T10:05:16.691Z,101850.73
2018-05-25T10:07:42.452Z,101844.79
2018-05-25T10:10:08.539Z,101842.33
2018-05-25T10:12:34.348Z,101839.19
2018-05-25T10:15:00.147Z,101844.88
2018-05-25T10:17:25.886Z,101844.98
2018-05-25T10:19:51.679Z,101844.55
2018-05-25T10:22:17.424Z,101850.48
2018-05-25T10:24:43.171Z,101835.80
2018-05-25T10:27:08.903Z,101837.57
2018-05-25T10:29:34.684Z,101833.75
2018-05-25T10:32:00.555Z,101828.48
2018-05-25T10:34:26.340Z,101840.17
2018-05-25T10:36:52.104Z,101828.27
2018-05-25T10:39:17.960Z,101836.28
2018-05-25T10:41:43.715Z,101830.88
2018-05-25T10:44:09.484Z,101832.09
2018-05-25T10:46:35.284Z,101823.50
2018-05-25T10:49:01.123Z,101822.06
2018-05-25T10:51:27.002Z,101830.14
2018-05-25T10:53:52.781Z,101827.77
2018-05-25T10:56:18.523Z,101823.22
2018-05-25T10:58:44.378Z,101824.88
2018-05-25T11:01:10.128Z,101825.66
2018-05-25T11:03:35.912Z,101826.87
2018-05-25T11:06:08.536Z,101821.03
2018-05-25T11:08:34.404Z,101822.85
2018-05-25T11:11:00.183Z,101827.02
2018-05-25T11:13:25.953Z,101828.37
2018-05-25T11:15:51.716Z,101824.98
2018-05-25T11:18:17.487Z,101829.39
2018-05-25T11:20:43.262Z,101836.16
2018-05-25T11:23:09.011Z,101826.41
2018-05-25T11:25:34.772Z,101821.38
2018-05-25T11:28:00.562Z,101821.27
2018-05-25T11:30:26.367Z,101825.02
2018-05-25T11:32:52.111Z,101821.50
2018-05-25T11:35:17.888Z,101814.11
2018-05-25T11:37:43.644Z,101812.51
2018-05-25T11:40:09.407Z,101813.09
2018-05-25T11:42:35.191Z,101804.42
2018-05-25T11:45:01.020Z,101805.94
2018-05-25T11:47:26.829Z,101806.61
2018-05-25T11:49:52.701Z,101798.72
2018-05-25T11:52:18.467Z,101793.64
2018-05-25T11:54:44.232Z,101791.97
2018-05-25T11:57:10.003Z,101792.99
2018-05-25T11:59:35.888Z,101792.52
2018-05-25T12:02:01.671Z,101791.62
2018-05-25T12:04:27.580Z,101787.65
2018-05-25T12:06:53.420Z,101792.69
2018-05-25T12:09:19.183Z,101789.87
2018-05-25T12:11:45.818Z,101784.88
2018-05-25T12:14:11.576Z,101788.39
2018-05-25T12:16:37.375Z,101777.98
2018-05-25T12:19:03.135Z,101779.02
2018-05-25T12:21:28.907Z,101776.73
2018-05-25T12:23:54.661Z,101775.89
2018-05-25T12:26:20.423Z,101779.34
2018-05-25T12:28:46.181Z,101773.81
2018-05-25T12:31:11.940Z,101773.70
2018-05-25T12:33:38.485Z,101782.12
2018-05-25T12:36:04.285Z,101776.55
2018-05-25T12:38:30.040Z,101776.23
2018-05-25T12:40:55.803Z,101764.27
2018-05-25T12:43:21.752Z,101761.71
2018-05-25T12:45:47.526Z,101756.98
2018-05-25T12:48:13.264Z,101769.67
2018-05-25T12:50:39.056Z,101768.89
2018-05-25T12:53:04.806Z,101766.20
2018-05-25T12:55:30.558Z,101764.73
2018-05-25T12:57:56.287Z,101756.25
2018-05-25T13:00:22.066Z,101763.42
2018-05-25T13:02:47.822Z,101765.69
2018-05-25T13:05:13.708Z,101756.32
2018-05-25T13:07:39.491Z,101753.17
2018-05-25T13:10:05.243Z,101752.94
2018-05-25T13:12:31.016Z,101750.55
2018-05-25T13:14:56.808Z,101752.84
2018-05-25T13:17:22.576Z,101752.37
2018-05-25T13:19:48.344Z,101754.73
2018-05-25T13:22:14.120Z,101751.51
2018-05-25T13:24:39.862Z,101758.20
2018-05-25T13:27:05.627Z,101747.23
2018-05-25T13:29:31.739Z,101752.91
2018-05-25T13:31:57.539Z,101747.12
2018-05-25T13:34:23.389Z,101753.12
2018-05-25T13:36:49.164Z,101741.84
2018-05-25T13:39:14.911Z,101744.77
2018-05-25T13:41:40.671Z,101743.96
2018-05-25T13:44:06.431Z,101746.97
2018-05-25T13:46:32.301Z,101751.02
2018-05-25T13:48:58.060Z,101745.24
2018-05-25T13:51:23.823Z,101749.05
2018-05-25T13:53:49.579Z,101751.12
2018-05-25T13:56:15.415Z,101750.66
2018-05-25T13:58:41.175Z,101742.25
2018-05-25T14:01:07.033Z,101742.69
2018-05-25T14:03:32.788Z,101744.88
2018-05-25T14:05:58.851Z,101745.14
2018-05-25T14:08:24.583Z,101744.77
2018-05-25T14:10:50.320Z,101747.00
2018-05-25T14:13:16.087Z,101744.77
2018-05-25T14:15:41.867Z,101737.10
2018-05-25T14:18:07.630Z,101744.73
2018-05-25T14:20:33.371Z,101746.59
2018-05-25T14:22:59.134Z,101737.89
2018-05-25T14:25:24.886Z,101741.74
2018-05-25T14:27:50.669Z,101738.70
2018-05-25T14:30:16.502Z,101736.25
2018-05-25T14:32:42.279Z,101737.22
2018-05-25T14:35:08.046Z,101736.02
2018-05-25T14:37:33.807Z,101740.27
2018-05-25T14:39:59.564Z,101748.75
2018-05-25T14:42:25.423Z,101741.84
2018-05-25T14:44:51.170Z,101743.69
2018-05-25T14:47:16.918Z,101743.50
2018-05-25T14:49:42.663Z,101752.70
2018-05-25T14:52:08.552Z,101755.11
2018-05-25T14:54:34.338Z,101750.95
2018-05-25T14:57:00.148Z,101749.19
2018-05-25T14:59:25.882Z,101752.58
2018-05-25T15:01:51.668Z,101759.42
2018-05-25T15:04:17.423Z,101756.75
2018-05-25T15:06:43.264Z,101746.45
2018-05-25T15:09:09.125Z,101746.66
2018-05-25T15:11:34.859Z,101747.48
2018-05-25T15:14:00.599Z,101745.10
2018-05-25T15:16:26.335Z,101738.91
2018-05-25T15:18:52.092Z,101744.06
2018-05-25T15:21:17.895Z,101759.86
2018-05-25T15:23:43.718Z,101754.19
2018-05-25T15:26:09.482Z,101759.45
2018-05-25T15:28:35.501Z,101751.40
2018-05-25T15:31:01.348Z,101750.98
2018-05-25T15:33:27.010Z,101751.93
2018-05-25T15:35:52.768Z,101755.95
2018-05-25T15:38:18.544Z,101749.61
2018-05-25T15:40:44.291Z,101753.02
2018-05-25T15:43:10.041Z,101750.00
2018-05-25T15:45:35.875Z,101750.02
2018-05-25T15:48:01.744Z,101752.36
2018-05-25T15:50:27.516Z,101755.80
2018-05-25T15:52:53.409Z,101756.31
2018-05-25T15:55:19.303Z,101751.96
2018-05-25T15:57:45.235Z,101754.63
2018-05-25T16:00:10.991Z,101748.11
2018-05-25T16:02:36.751Z,101767.84
2018-05-25T16:05:02.545Z,101761.01
2018-05-25T16:07:28.318Z,101753.80
2018-05-25T16:09:54.071Z,101763.20
2018-05-25T16:12:19.853Z,101759.59
2018-05-25T16:14:45.591Z,101766.41
2018-05-25T16:17:11.335Z,101768.79
2018-05-25T16:19:37.099Z,101769.75
2018-05-25T16:22:02.875Z,101768.70
2018-05-25T16:24:28.644Z,101775.63
2018-05-25T16:26:54.413Z,101765.00
2018-05-25T16:29:20.204Z,101762.28
2018-05-25T16:31:45.969Z,101760.75
2018-05-25T16:34:11.771Z,101764.55
2018-05-25T16:36:37.567Z,101777.22
2018-05-25T16:39:03.340Z,101778.83
2018-05-25T16:41:29.083Z,101769.50
2018-05-25T16:43:54.880Z,101779.41
2018-05-25T16:46:20.639Z,101786.20
2018-05-25T16:48:46.514Z,101782.25
2018-05-25T16:51:12.268Z,101789.87
2018-05-25T16:53:38.031Z,101785.59
2018-05-25T16:56:03.845Z,101790.45
2018-05-25T16:58:29.579Z,101797.72
2018-05-25T17:00:55.335Z,101795.48
2018-05-25T17:03:21.106Z,101798.38
2018-05-25T17:05:46.859Z,101797.45
2018-05-25T17:08:12.688Z,101796.80
2018-05-25T17:10:38.436Z,101800.79
2018-05-25T17:13:04.272Z,101802.09
2018-05-25T17:15:30.020Z,101801.56
2018-05-25T17:17:55.785Z,101805.44
2018-05-25T17:20:21.550Z,101806.06
2018-05-25T17:22:47.336Z,101806.59
2018-05-25T17:25:13.139Z,101802.13
2018-05-25T17:27:38.887Z,101809.66
2018-05-25T17:30:04.652Z,101806.12
2018-05-25T17:32:30.407Z,101817.02
2018-05-25T17:34:56.228Z,101807.59
2018-05-25T17:37:22.007Z,101808.14
2018-05-25T17:39:47.791Z,101808.73
2018-05-25T17:42:13.681Z,101807.48
2018-05-25T17:44:39.428Z,101808.31
2018-05-25T17:47:05.284Z,101811.81
2018-05-25T17:49:31.053Z,101813.23
2018-05-25T17:51:56.847Z,101807.05
2018-05-25T17:54:22.608Z,101813.78
2018-05-25T17:56:48.377Z,101808.76
2018-05-25T17:59:14.210Z,101810.67
2018-05-25T18:01:40.111Z,101816.55
2018-05-25T18:04:06.044Z,101816.75
2018-05-25T18:06:31.782Z,101821.77
2018-05-25T18:08:57.595Z,101826.39
2018-05-25T18:11:23.335Z,101823.98
2018-05-25T18:13:49.140Z,101822.59
2018-05-25T18:16:14.892Z,101822.59
2018-05-25T18:18:40.683Z,101828.30
2018-05-25T18:21:06.425Z,101827.98
2018-05-25T18:23:32.227Z,101827.59
2018-05-25T18:25:57.976Z,101823.36
2018-05-25T18:28:23.744Z,101830.80
2018-05-25T18:30:49.500Z,101829.45
2018-05-25T18:33:15.279Z,101831.38
2018-05-25T18:35:41.034Z,101836.84
2018-05-25T18:38:06.849Z,101833.95
2018-05-25T18:40:32.620Z,101829.03
2018-05-25T18:42:58.378Z,101844.57
2018-05-25T18:45:24.157Z,101841.61
2018-05-25T18:47:49.972Z,101851.55
2018-05-25T18:50:15.760Z,101842.38
2018-05-25T18:52:41.523Z,101846.92
2018-05-25T18:55:07.303Z,101849.48
2018-05-25T18:57:33.063Z,101848.58
2018-05-25T18:59:58.836Z,101846.98
2018-05-25T19:02:24.599Z,101847.43
2018-05-25T19:04:50.416Z,101851.77
2018-05-25T19:07:16.140Z,101849.68
2018-05-25T19:09:41.891Z,101860.72
2018-05-25T19:12:07.667Z,101859.33
2018-05-25T19:14:33.426Z,101855.47
2018-05-25T19:16:59.181Z,101856.66
2018-05-25T19:19:24.959Z,101858.61
2018-05-25T19:21:50.712Z,101862.87
2018-05-25T19:24:16.504Z,101859.87
2018-05-25T19:26:42.262Z,101864.55
2018-05-25T19:29:08.024Z,101868.66
2018-05-25T19:31:33.793Z,101873.87
2018-05-25T19:33:59.547Z,101877.27
2018-05-25T19:36:25.343Z,101888.94
2018-05-25T19:38:51.096Z,101885.11
2018-05-25T19:41:16.871Z,101886.94
2018-05-25T19:43:42.639Z,101889.61
2018-05-25T19:46:08.416Z,101885.53
2018-05-25T19:48:34.184Z,101885.69
2018-05-25T19:51:00.041Z,101888.09
2018-05-25T19:53:25.843Z,101888.84
2018-05-25T19:55:51.627Z,101888.35
2018-05-25T19:58:17.471Z,101894.66
2018-05-25T20:00:43.267Z,101892.57
2018-05-25T20:03:09.032Z,101893.81
2018-05-25T20:05:34.803Z,101894.06
2018-05-25T20:08:00.564Z,101891.31
2018-05-25T20:10:26.475Z,101890.22
2018-05-25T20:12:52.219Z,101894.60
2018-05-25T20:15:17.995Z,101892.85
2018-05-25T20:17:43.984Z,101897.58
2018-05-25T20:20:09.807Z,101892.25
2018-05-25T20:22:35.555Z,101897.99
2018-05-25T20:25:01.332Z,101896.62
2018-05-25T20:27:27.152Z,101893.72
2018-05-25T20:29:52.915Z,101893.20
2018-05-25T20:32:18.669Z,101894.27
2018-05-25T20:34:44.459Z,101889.34
2018-05-25T20:37:10.237Z,101893.14
2018-05-25T20:39:36.057Z,101888.00
2018-05-25T20:42:01.877Z,101885.42
2018-05-25T20:44:27.692Z,101891.22
2018-05-25T20:46:53.466Z,101892.67
2018-05-25T20:49:19.243Z,101890.50
2018-05-25T20:51:45.014Z,101894.96
2018-05-25T20:54:10.777Z,101890.86
2018-05-25T20:56:36.782Z,101891.20
2018-05-25T20:59:02.544Z,101898.31
2018-05-25T21:01:28.329Z,101894.03
2018-05-25T21:03:54.070Z,101894.58
2018-05-25T21:06:19.834Z,101895.59
2018-05-25T21:08:45.579Z,101913.08
2018-05-25T21:11:11.344Z,101916.53
2018-05-25T21:13:37.363Z,101912.17
2018-05-25T21:16:03.140Z,101914.87
2018-05-25T21:18:28.892Z,101919.28
2018-05-25T21:20:54.667Z,101915.70
2018-05-25T21:23:20.412Z,101916.30
2018-05-25T21:25:46.179Z,101921.20
2018-05-25T21:28:11.948Z,101924.39
2018-05-25T21:30:37.724Z,101925.82
2018-05-25T21:33:03.463Z,101929.70
2018-05-25T21:35:29.325Z,101931.46
2018-05-25T21:37:55.068Z,101930.36
2018-05-25T21:40:20.836Z,101930.34
2018-05-25T21:42:46.609Z,101928.27
2018-05-25T21:45:12.371Z,101932.50
2018-05-25T21:47:38.414Z,101924.20
2018-05-25T21:50:04.163Z,101925.39
2018-05-25T21:52:29.975Z,101930.90
2018-05-25T21:54:56.369Z,101930.51
2018-05-25T21:57:22.159Z,101918.48
2018-05-25T21:59:47.919Z,101921.33
2018-05-25T22:02:13.707Z,101914.57
2018-05-25T22:04:39.646Z,101920.77
2018-05-25T22:07:05.397Z,101923.49
2018-05-25T22:09:31.173Z,101925.56
2018-05-25T22:11:56.944Z,101922.74
2018-05-25T22:14:22.716Z,101929.36
2018-05-25T22:16:48.531Z,101932.98
2018-05-25T22:19:14.389Z,101936.80
2018-05-25T22:21:40.179Z,101938.77
2018-05-25T22:24:05.932Z,101948.23
2018-05-25T22:26:31.751Z,101950.33
2018-05-25T22:28:57.503Z,101951.81
2018-05-25T22:31:23.285Z,101951.94
2018-05-25T22:33:49.037Z,101953.00
2018-05-25T22:36:14.800Z,101944.78
2018-05-25T22:38:40.901Z,101946.88
2018-05-25T22:41:06.751Z,101952.81
2018-05-25T22:43:44.740Z,101954.78
2018-05-25T22:46:22.979Z,101948.18
2018-05-25T22:49:01.259Z,101944.13
2018-05-25T22:51:39.396Z,101941.50
2018-05-25T22:54:11.192Z,101942.64
2018-05-25T22:56:37.035Z,101941.46
2018-05-25T22:59:02.782Z,101951.55
2018-05-25T23:01:28.677Z,101951.23
2018-05-25T23:03:54.433Z,101946.02
2018-05-25T23:06:20.191Z,101942.69
2018-05-25T23:08:45.943Z,101944.08
2018-05-25T23:11:11.719Z,101948.27
2018-05-25T23:13:37.499Z,101951.47
2018-05-25T23:16:03.463Z,101943.41
2018-05-25T23:18:29.249Z,101938.13
2018-05-25T23:20:55.027Z,101932.90
2018-05-25T23:23:20.815Z,101941.80
2018-05-25T23:25:46.571Z,101939.22
2018-05-25T23:28:12.435Z,101939.11
2018-05-25T23:30:38.176Z,101935.77
2018-05-25T23:33:03.947Z,101928.11
2018-05-25T23:35:29.711Z,101935.00
2018-05-25T23:37:55.507Z,101940.02
2018-05-25T23:40:21.251Z,101931.19
2018-05-25T23:42:47.023Z,101932.91
2018-05-25T23:45:12.773Z,101923.17
2018-05-25T23:47:38.625Z,101921.48
2018-05-25T23:50:04.379Z,101922.00
2018-05-25T23:52:30.153Z,101927.34
2018-05-25T23:54:55.897Z,101924.43
2018-05-25T23:57:21.699Z,101925.81
2018-05-25T23:59:47.443Z,101925.25
